Ana Sayfa
METAR-TAF:

METAR-TAF

Havaalanları :

Kahire Uluslararası Havalimanı

Kahire, Mısır

Enlem: 30-08N, Boylam: 031-24E, yükseklik: 64 m

Güncel hava durumu gözlemi

Rapor saat 03:00 UTC de 27 dakika önce yapıldı.
Rüzgar doğu/güneydoğudan 3 kt
Sıcaklık 14°C
Nem 82%
Basınç 1023 hPa
Görüş mesafesi: 4000 m
Toz Pusu

METAR: HECA 130300Z 12003KT 4000 HZ NSC 14/11 Q1023 NOSIG

Saat: 05:27 (03:27 UTC)

Tahmin

Rapor saat 23:00 UTC de 4 saat ve 27 dakika önce yapıldı.
Ayın 13'si saat 00 UTC'den ayın 14'si saat 06 UTC'ye kadar geçerli Tahmin
Rüzgar batı/kuzeybatıdan 9 kt
Görüş mesafesi 10 km veya daha fazla
2500 ft yükseklikte parçalı bulutlu
Geçici
ayın 13'si saat 00 UTC'den ayın 13'si saat 08 UTC'ye kadar
Rüzgar değişken yönden 3 kt
Görüş mesafesi: 4000 m
Pus

TAF: HECA 122300Z 1300/1406 30009KT 9999 SCT025 TEMPO 1300/1308 VRB03KT 4000 BR

4.000'den fazla havaalanı için hava durumu gözlemleri ve tahminleri (METAR ve TAF raporları).

Kullanılabilir istasyonlar harita üzerinde sarı ve kırmızı noktalarla gösterilir.

İstasyonun adını görmek için fareyi noktanın üzerinde gezdirin.

Sonrasında hava gözlem ve tahminlerini görmek için tıklayın.

Haritayı değiştirmek için: yaklaştırmak için siyah artı işaretli yeşil düğmeye ve uzaklaştırmak için de eksi işaretli düğmeye hızla tıklayın; bitişik haritalar için yeşil okları kullanın.


METAR-TAF: